Terminal Aerodrome Forecast
Issued by NWS

Home | Current Version | Previous Version | Text Only | Print | Product List | Glossary On
Versions: 1 2 3 4 5 6 7 8 9 10 11 12 13 14 15 16 17 18 19 20 21 22 23 24 25 26
000
FTUS43 KDLH 301134
TAFBRD
TAF
KBRD 301134Z 3012/0112 03004KT 3SM BR BKN006 OVC013
      TEMPO 3012/3015 2SM -SN BR SCT006 OVC013
     FM301500 01004KT 3SM -SN BR BKN006 OVC010
     FM301800 36005KT 5SM -RASN BR BKN007 OVC012
     FM010600 32007KT 6SM BR OVC007=

USA.gov is the U.S. government's official web portal to all federal, state and local government web resources and services.